Terminal Aerodrome Forecast
Issued by NWS Anchorage, AK

Home | Current Version | Previous Version | Text Only | Print | Product List | Glossary On
Versions: 1 2 3 4 5 6 7 8 9 10 11 12 13 14 15 16 17 18 19 20 21 22 23 24 25 26 27 28 29 30 31 32 33 34 35 36 37 38 39 40 41 42 43 44 45 46 47 48 49 50
000
FTAK31 PANC 271731
TAFANC
TAF
PANC 271731Z 2718/2824 14011G18KT 6SM -SHRA FEW015 SCT030 BKN050
      TEMPO 2718/2721 4SM RA BR BKN028 OVC040
     FM272200 15011G20KT P6SM VCSH SCT030 BKN050
     FM280500 VRB06KT P6SM VCSH BKN060 WS015/15030KT
     FM280800 01006KT P6SM VCSH BKN060 WS020/12020KT=

USA.gov is the U.S. government's official web portal to all federal, state and local government web resources and services.